Terminal Aerodrome Forecast
Issued by NWS

Home | Current Version | Previous Version | Text Only | Print | Product List | Glossary On
Versions: 1 2 3 4 5 6 7 8 9 10 11 12 13 14 15 16 17 18 19 20
000
FTUS43 KMQT 252336
TAFCMX
TAF
KCMX 252336Z 2600/2624 15003KT P6SM SCT022
     FM260600 18007KT P6SM BKN070
     FM261100 18008KT P6SM VCSH OVC070
     FM261400 17009KT 1SM -SN SCT008 OVC010=

USA.gov is the U.S. government's official web portal to all federal, state and local government web resources and services.